Time;durP1;ratioP1;P1;durP2;ratioP2;P2;SDS_P1;SDS_P2;PMS_P1;PMS_P2;Temp;Humidity;BMP_temperature;BMP_pressure;BME280_temperature;BME280_humidity;BME280_pressure;Samples;Min_cycle;Max_cycle;Signal;HPM_P1;HPM_P2
2020/12/26 00:03:46;;;;;;;3.72;1.70;;;3.20;99.90;;;;;;10484281;28;20781;-51
2020/12/26 00:09:09;;;;;;;5.47;1.50;;;3.20;99.90;;;;;;10461085;28;20556;-51
2020/12/26 00:14:29;;;;;;;4.78;1.30;;;3.30;99.90;;;;;;10464115;28;25392;-51
2020/12/26 00:19:50;;;;;;;6.47;2.08;;;3.30;99.90;;;;;;10484017;28;20608;-51
2020/12/26 00:25:12;;;;;;;5.47;1.63;;;3.30;99.90;;;;;;10483213;28;20036;-51
2020/12/26 00:30:33;;;;;;;3.80;1.33;;;3.50;99.90;;;;;;10482349;28;20047;-51
2020/12/26 00:35:54;;;;;;;3.72;1.30;;;3.70;99.90;;;;;;10457001;28;20051;-51
2020/12/26 00:41:15;;;;;;;3.38;1.02;;;3.70;99.90;;;;;;10468293;28;20147;-51
2020/12/26 00:46:36;;;;;;;1.95;1.13;;;3.90;99.90;;;;;;10458118;28;20037;-51
2020/12/26 00:51:57;;;;;;;4.78;0.75;;;3.80;99.90;;;;;;10475788;28;20098;-51
2020/12/26 00:57:18;;;;;;;3.42;1.58;;;4.00;99.90;;;;;;10482646;28;20033;-51
2020/12/26 01:02:39;;;;;;;3.30;0.80;;;4.00;99.90;;;;;;10476818;28;20086;-51
2020/12/26 01:08:00;;;;;;;2.25;0.75;;;3.90;99.90;;;;;;10442355;28;20089;-51
2020/12/26 01:13:22;;;;;;;1.85;0.70;;;3.90;99.90;;;;;;10445257;28;20100;-51
2020/12/26 01:18:43;;;;;;;1.42;0.43;;;4.00;99.90;;;;;;10480831;28;20043;-52
2020/12/26 01:24:04;;;;;;;6.78;1.38;;;4.00;99.90;;;;;;10482001;28;20024;-51
2020/12/26 01:29:25;;;;;;;2.20;0.80;;;4.00;99.90;;;;;;10481922;28;20029;-51
2020/12/26 01:34:46;;;;;;;1.60;0.60;;;4.00;99.90;;;;;;10477952;28;20068;-51
2020/12/26 01:40:10;;;;;;;0.82;0.45;;;3.90;99.90;;;;;;10480853;28;20051;-52
2020/12/26 01:45:31;;;;;;;3.08;0.77;;;3.90;99.90;;;;;;10454197;28;20032;-51
2020/12/26 01:50:53;;;;;;;2.50;1.00;;;3.90;99.90;;;;;;10471391;28;20131;-51
2020/12/26 01:56:15;;;;;;;4.22;0.85;;;3.90;99.90;;;;;;10460183;28;20424;-51
2020/12/26 02:01:43;;;;;;;1.92;0.90;;;3.80;99.90;;;;;;10464577;28;20133;-51
2020/12/26 02:07:05;;;;;;;1.83;0.97;;;3.80;99.90;;;;;;10483317;28;20036;-51
2020/12/26 02:12:26;;;;;;;1.55;0.25;;;3.90;99.90;;;;;;10447637;28;20037;-51
2020/12/26 02:17:47;;;;;;;6.65;1.45;;;3.80;99.90;;;;;;10467244;28;20068;-51
2020/12/26 02:23:09;;;;;;;1.52;0.70;;;3.90;99.90;;;;;;10487226;28;20040;-51
2020/12/26 02:28:29;;;;;;;2.13;0.52;;;3.90;99.90;;;;;;10488603;28;21167;-52
2020/12/26 02:33:50;;;;;;;1.27;0.40;;;3.90;99.90;;;;;;10487454;28;20036;-51
2020/12/26 02:39:11;;;;;;;1.48;0.45;;;3.90;99.90;;;;;;10487038;28;20088;-51
2020/12/26 02:44:32;;;;;;;1.35;0.43;;;3.90;99.90;;;;;;10463750;28;20047;-52
2020/12/26 02:49:53;;;;;;;0.30;0.10;;;3.90;99.90;;;;;;10445819;28;20025;-51
2020/12/26 02:55:14;;;;;;;0.90;0.30;;;3.80;99.90;;;;;;10486739;28;20021;-51
2020/12/26 03:00:35;;;;;;;0.80;0.32;;;3.70;99.90;;;;;;10487894;28;20067;-51
2020/12/26 03:05:56;;;;;;;1.70;0.45;;;3.70;99.90;;;;;;10477471;28;20392;-51
2020/12/26 03:11:17;;;;;;;1.48;0.55;;;3.60;99.90;;;;;;10447717;28;20059;-52
2020/12/26 03:16:39;;;;;;;2.08;0.55;;;3.50;99.90;;;;;;10467249;28;20029;-51
2020/12/26 03:22:00;;;;;;;1.27;0.45;;;3.50;99.90;;;;;;10484647;28;20079;-51
2020/12/26 03:27:22;;;;;;;0.47;0.30;;;3.40;99.90;;;;;;10468728;28;20043;-51
2020/12/26 03:32:43;;;;;;;0.65;0.30;;;3.60;99.90;;;;;;10484856;28;20033;-51
2020/12/26 03:38:04;;;;;;;1.38;0.60;;;3.50;99.90;;;;;;10468583;28;20118;-51
2020/12/26 03:43:25;;;;;;;2.17;0.73;;;3.50;99.90;;;;;;10452096;28;20033;-51
2020/12/26 03:48:46;;;;;;;1.35;0.70;;;3.50;99.90;;;;;;10454038;28;20435;-51
2020/12/26 03:54:07;;;;;;;2.47;1.08;;;3.50;99.90;;;;;;10476783;28;20043;-51
2020/12/26 03:59:28;;;;;;;4.88;0.63;;;3.50;99.90;;;;;;10479281;28;20037;-51
2020/12/26 04:04:49;;;;;;;2.33;0.95;;;3.60;99.90;;;;;;10483445;28;20025;-51
2020/12/26 04:10:09;;;;;;;1.67;0.57;;;3.60;99.90;;;;;;10481982;28;20082;-51
2020/12/26 04:15:30;;;;;;;0.60;0.28;;;3.60;99.90;;;;;;10481853;28;20047;-51
2020/12/26 04:20:51;;;;;;;0.93;0.40;;;3.60;99.90;;;;;;10482950;28;20060;-51
2020/12/26 04:26:12;;;;;;;1.13;0.68;;;3.60;99.90;;;;;;10459446;28;20048;-51
2020/12/26 04:31:33;;;;;;;3.08;0.40;;;3.60;99.90;;;;;;10473898;28;20024;-51
2020/12/26 04:36:54;;;;;;;0.65;0.20;;;3.60;99.90;;;;;;10471627;28;20349;-51
2020/12/26 04:42:16;;;;;;;0.52;0.38;;;3.60;99.90;;;;;;10466316;28;20048;-51
2020/12/26 04:47:48;;;;;;;1.23;0.32;;;3.50;99.90;;;;;;10458776;28;20040;-51
2020/12/26 04:53:10;;;;;;;2.58;0.30;;;3.60;99.90;;;;;;10459209;28;20048;-51
2020/12/26 04:58:31;;;;;;;0.77;0.17;;;3.60;99.90;;;;;;10464072;28;20089;-51
2020/12/26 05:03:54;;;;;;;1.67;0.28;;;3.70;99.90;;;;;;10482182;28;20040;-50
2020/12/26 05:09:17;;;;;;;0.10;0.00;;;3.70;99.90;;;;;;10481237;28;20549;-51
2020/12/26 05:14:38;;;;;;;1.85;0.17;;;3.60;99.90;;;;;;10479340;28;20032;-51
2020/12/26 05:19:59;;;;;;;0.30;0.10;;;3.70;99.90;;;;;;10481395;28;20037;-51
2020/12/26 05:25:20;;;;;;;1.10;0.13;;;3.80;99.90;;;;;;10461300;28;20046;-51
2020/12/26 05:30:43;;;;;;;0.95;0.28;;;3.80;99.90;;;;;;10479590;28;20043;-52
2020/12/26 05:36:05;;;;;;;0.98;0.10;;;3.80;99.90;;;;;;10480338;28;20111;-51
2020/12/26 05:41:28;;;;;;;0.08;0.05;;;3.80;99.90;;;;;;10479244;28;20132;-51
2020/12/26 05:46:58;;;;;;;0.05;0.05;;;4.00;99.90;;;;;;10455772;28;20056;-51
2020/12/26 05:52:21;;;;;;;2.80;0.25;;;3.90;99.90;;;;;;10453445;28;20037;-51
2020/12/26 05:57:43;;;;;;;0.30;0.20;;;3.90;99.90;;;;;;10479293;28;20107;-51
2020/12/26 06:03:26;;;;;;;0.10;0.00;;;3.90;99.90;;;;;;10479498;28;20094;-51
2020/12/26 06:08:48;;;;;;;0.22;0.15;;;3.90;99.90;;;;;;10467390;28;20037;-51
2020/12/26 06:14:12;;;;;;;1.85;0.43;;;3.90;99.90;;;;;;10452323;28;20040;-51
2020/12/26 06:19:33;;;;;;;4.95;0.45;;;3.90;99.90;;;;;;10477408;28;20032;-51
2020/12/26 06:24:55;;;;;;;1.17;0.47;;;3.90;99.90;;;;;;10456555;28;20037;-51
2020/12/26 06:30:16;;;;;;;0.52;0.25;;;4.00;99.90;;;;;;10478293;28;20045;-51
2020/12/26 06:35:44;;;;;;;4.22;0.40;;;4.10;99.90;;;;;;10478299;28;20055;-51
2020/12/26 06:41:16;;;;;;;1.17;0.30;;;4.10;99.90;;;;;;10449639;28;20097;-51
2020/12/26 06:46:39;;;;;;;1.10;0.30;;;4.20;99.90;;;;;;10440693;28;20119;-51
2020/12/26 06:52:00;;;;;;;2.75;2.17;;;4.10;99.90;;;;;;10484707;28;20079;-51
2020/12/26 06:57:36;;;;;;;0.40;0.28;;;4.10;99.90;;;;;;10451489;28;20028;-51
2020/12/26 07:03:15;;;;;;;0.40;0.10;;;4.10;99.90;;;;;;10484941;28;20051;-51
2020/12/26 07:08:36;;;;;;;0.38;0.17;;;4.20;99.90;;;;;;10464236;28;20075;-51
2020/12/26 07:13:58;;;;;;;0.35;0.15;;;4.20;99.90;;;;;;10482520;28;20029;-51
2020/12/26 07:19:30;;;;;;;2.17;0.60;;;4.30;99.90;;;;;;10483195;28;20052;-51
2020/12/26 07:24:59;;;;;;;0.73;0.22;;;4.30;99.90;;;;;;10485352;28;20503;-51
2020/12/26 07:30:20;;;;;;;0.45;0.28;;;4.30;99.90;;;;;;10483717;28;20024;-51
2020/12/26 07:35:41;;;;;;;1.10;0.47;;;4.30;99.90;;;;;;10465808;28;20021;-51
2020/12/26 07:41:09;;;;;;;1.60;0.57;;;4.40;99.90;;;;;;10483524;28;20041;-52
2020/12/26 07:46:30;;;;;;;0.40;0.30;;;4.30;99.90;;;;;;10455539;28;20057;-51
2020/12/26 07:52:05;;;;;;;4.13;0.68;;;4.40;99.90;;;;;;10473879;28;20033;-51
2020/12/26 07:57:27;;;;;;;0.85;0.30;;;4.30;99.90;;;;;;10482622;28;20045;-51
2020/12/26 08:02:56;;;;;;;1.67;0.73;;;4.40;99.90;;;;;;10477060;28;20063;-52
2020/12/26 08:08:23;;;;;;;2.05;0.93;;;4.40;99.90;;;;;;10474736;28;20040;-51
2020/12/26 08:14:00;;;;;;;1.38;0.75;;;4.40;99.90;;;;;;10477047;28;20527;-51
2020/12/26 08:19:21;;;;;;;8.50;1.60;;;4.40;99.90;;;;;;10480304;28;20033;-52
2020/12/26 08:24:42;;;;;;;2.15;0.80;;;4.50;99.90;;;;;;10482574;28;20031;-51
2020/12/26 08:30:07;;;;;;;3.13;1.25;;;4.50;99.90;;;;;;10482047;28;20165;-51
2020/12/26 08:35:30;;;;;;;0.85;0.40;;;4.60;99.90;;;;;;10453431;28;20061;-51
2020/12/26 08:40:59;;;;;;;4.03;0.95;;;4.70;99.90;;;;;;10475529;28;20041;-51
2020/12/26 08:46:23;;;;;;;;;;;4.70;99.90;;;;;;10452279;28;20080;-51
2020/12/26 08:51:45;;;;;;;2.83;0.73;;;4.80;99.90;;;;;;10469470;28;19944;-51
2020/12/26 08:57:18;;;;;;;1.25;0.50;;;4.90;99.90;;;;;;10480383;28;20096;-51
2020/12/26 09:02:48;;;;;;;1.45;0.57;;;4.80;99.90;;;;;;10476280;28;20029;-51
2020/12/26 09:08:12;;;;;;;3.42;1.15;;;4.80;99.90;;;;;;10480071;28;20048;-51
2020/12/26 09:13:43;;;;;;;2.33;1.08;;;4.80;99.90;;;;;;10450154;28;20065;-51
2020/12/26 09:19:05;;;;;;;2.45;1.00;;;4.80;99.90;;;;;;10478114;28;20036;-52
2020/12/26 09:24:26;;;;;;;2.38;1.05;;;4.70;99.90;;;;;;10465093;28;20074;-51
2020/12/26 09:29:49;;;;;;;2.33;1.23;;;4.70;99.90;;;;;;10480257;28;20038;-51
2020/12/26 09:35:17;;;;;;;2.45;1.00;;;4.80;99.90;;;;;;10476121;28;20436;-51
2020/12/26 09:40:38;;;;;;;1.48;0.80;;;4.80;99.90;;;;;;10479567;28;20174;-51
2020/12/26 09:45:59;;;;;;;1.58;0.47;;;4.80;99.90;;;;;;10469722;28;20025;-51
2020/12/26 09:51:21;;;;;;;2.75;0.80;;;4.80;99.90;;;;;;10478327;28;20748;-51
2020/12/26 09:56:42;;;;;;;4.43;0.90;;;4.80;99.90;;;;;;10448172;28;20615;-51
2020/12/26 10:02:03;;;;;;;2.38;0.68;;;4.90;99.90;;;;;;10480483;28;20041;-51
2020/12/26 10:07:24;;;;;;;3.50;1.13;;;5.00;99.90;;;;;;10464577;28;20799;-51
2020/12/26 10:12:45;;;;;;;2.05;0.73;;;5.10;99.90;;;;;;10469211;28;20076;-51
2020/12/26 10:18:06;;;;;;;2.25;0.52;;;5.10;99.90;;;;;;10477312;28;20044;-51
2020/12/26 10:23:28;;;;;;;1.65;0.82;;;5.20;99.90;;;;;;10482789;28;20045;-51
2020/12/26 10:28:48;;;;;;;2.17;0.90;;;5.20;99.90;;;;;;10485464;28;20040;-51
2020/12/26 10:34:09;;;;;;;2.40;0.65;;;5.20;99.90;;;;;;10482123;28;20062;-51
2020/12/26 10:39:30;;;;;;;2.17;0.70;;;5.30;99.90;;;;;;10479976;28;20070;-51
2020/12/26 10:44:52;;;;;;;2.42;0.40;;;5.20;99.90;;;;;;10474595;28;20033;-51
2020/12/26 10:50:13;;;;;;;1.48;0.70;;;5.30;99.90;;;;;;10483053;28;20032;-51
2020/12/26 10:55:35;;;;;;;1.25;0.45;;;5.30;99.90;;;;;;10483570;28;20038;-51
2020/12/26 11:00:56;;;;;;;2.13;1.95;;;5.30;99.90;;;;;;10484628;28;20568;-51
2020/12/26 11:06:17;;;;;;;2.00;0.52;;;5.30;99.90;;;;;;10485182;28;20044;-51
2020/12/26 11:11:38;;;;;;;1.20;0.55;;;5.20;99.90;;;;;;10467456;28;20389;-51
2020/12/26 11:16:59;;;;;;;7.35;0.55;;;5.20;99.90;;;;;;10480135;28;20032;-51
2020/12/26 11:22:20;;;;;;;4.18;0.80;;;5.20;99.90;;;;;;10484408;28;20093;-51
2020/12/26 11:27:40;;;;;;;1.83;0.60;;;5.20;99.90;;;;;;10484715;28;20491;-51
2020/12/26 11:33:01;;;;;;;1.63;0.90;;;5.40;99.90;;;;;;10484554;28;20237;-51
2020/12/26 11:38:22;;;;;;;2.45;0.60;;;5.50;99.90;;;;;;10482600;28;20040;-51
2020/12/26 11:43:44;;;;;;;3.58;0.70;;;5.40;99.90;;;;;;10467464;28;20160;-51
2020/12/26 11:49:05;;;;;;;3.75;0.55;;;5.70;99.90;;;;;;10454618;28;20055;-50
2020/12/26 11:54:26;;;;;;;2.53;0.60;;;5.70;99.90;;;;;;10483425;28;20040;-51
2020/12/26 11:59:47;;;;;;;1.27;0.50;;;6.50;99.90;;;;;;10484074;28;20041;-51
2020/12/26 12:05:08;;;;;;;6.72;1.15;;;6.80;99.90;;;;;;10481073;28;20039;-51
2020/12/26 12:10:29;;;;;;;4.10;0.73;;;6.50;99.90;;;;;;10459182;28;20032;-51
2020/12/26 12:15:50;;;;;;;4.40;0.80;;;6.20;99.90;;;;;;10481208;28;20078;-51
2020/12/26 12:21:11;;;;;;;1.88;0.85;;;6.20;99.90;;;;;;10467179;28;20366;-51
2020/12/26 12:26:32;;;;;;;2.40;1.45;;;5.90;99.90;;;;;;10483396;28;20463;-51
2020/12/26 12:31:53;;;;;;;1.38;0.55;;;5.90;99.90;;;;;;10481223;28;20935;-51
2020/12/26 12:37:14;;;;;;;2.22;0.77;;;5.80;99.90;;;;;;10445424;28;20033;-51
2020/12/26 12:42:35;;;;;;;2.30;0.73;;;6.00;99.90;;;;;;10477033;28;20041;-51
2020/12/26 12:47:56;;;;;;;2.63;0.80;;;5.80;99.90;;;;;;10444273;28;20041;-51
2020/12/26 12:53:17;;;;;;;8.05;0.98;;;5.80;99.90;;;;;;10439637;28;20029;-51
2020/12/26 12:58:38;;;;;;;2.50;0.93;;;5.80;99.90;;;;;;10453663;28;20037;-51
2020/12/26 13:03:58;;;;;;;2.10;1.35;;;5.80;99.90;;;;;;10473332;28;20660;-51
2020/12/26 13:09:20;;;;;;;2.53;1.45;;;5.70;99.90;;;;;;10480854;28;20116;-51
2020/12/26 13:14:41;;;;;;;1.77;0.60;;;5.80;99.90;;;;;;10478285;28;20480;-50
2020/12/26 13:20:02;;;;;;;2.25;0.85;;;5.80;99.90;;;;;;10477634;28;20048;-51
2020/12/26 13:25:23;;;;;;;3.95;1.30;;;5.70;99.90;;;;;;10472646;28;20044;-51
2020/12/26 13:30:45;;;;;;;3.38;1.10;;;5.70;99.90;;;;;;10457224;28;20040;-50
2020/12/26 13:36:06;;;;;;;4.03;1.10;;;5.70;99.90;;;;;;10479499;28;20040;-50
2020/12/26 13:41:27;;;;;;;3.40;1.50;;;5.70;99.90;;;;;;10478994;28;20058;-51
2020/12/26 13:46:49;;;;;;;4.85;1.50;;;5.60;99.90;;;;;;10454652;28;20535;-51
2020/12/26 13:52:11;;;;;;;3.60;1.38;;;5.60;99.90;;;;;;10469794;28;20511;-51
2020/12/26 13:57:32;;;;;;;2.83;1.30;;;5.70;99.90;;;;;;10466291;28;20032;-51
2020/12/26 14:02:53;;;;;;;4.22;1.45;;;5.70;99.90;;;;;;10470752;28;20039;-51
2020/12/26 14:08:14;;;;;;;5.85;1.38;;;5.70;99.90;;;;;;10478505;28;20040;-51
2020/12/26 14:13:36;;;;;;;5.40;1.40;;;5.70;99.90;;;;;;10439802;28;20112;-51
2020/12/26 14:18:57;;;;;;;2.90;1.40;;;5.70;99.90;;;;;;10478037;28;20515;-51
2020/12/26 14:24:18;;;;;;;2.08;1.13;;;5.60;99.90;;;;;;10478808;28;20032;-51
2020/12/26 14:29:39;;;;;;;3.90;2.00;;;5.60;99.90;;;;;;10478370;28;20032;-51
2020/12/26 14:35:00;;;;;;;3.03;1.17;;;5.60;99.90;;;;;;10464348;28;20025;-51
2020/12/26 14:40:21;;;;;;;4.45;1.50;;;5.70;99.90;;;;;;10458653;28;20061;-51
2020/12/26 14:45:42;;;;;;;2.20;1.13;;;5.70;99.90;;;;;;10463455;28;20041;-51
2020/12/26 14:51:04;;;;;;;2.55;1.83;;;5.70;99.90;;;;;;10474471;28;20135;-51
2020/12/26 14:56:25;;;;;;;7.38;2.17;;;5.70;99.90;;;;;;10465823;28;20041;-51
2020/12/26 15:01:46;;;;;;;5.55;2.17;;;5.80;99.90;;;;;;10453580;28;20049;-50
2020/12/26 15:07:07;;;;;;;4.00;1.50;;;5.80;99.90;;;;;;10436713;28;20045;-51
2020/12/26 15:12:28;;;;;;;5.78;2.28;;;5.80;99.90;;;;;;10482691;28;20036;-51
2020/12/26 15:17:49;;;;;;;5.78;2.22;;;5.70;99.90;;;;;;10485330;28;20032;-51
2020/12/26 15:23:10;;;;;;;5.03;1.67;;;5.70;99.90;;;;;;10458723;28;20508;-51
2020/12/26 15:28:31;;;;;;;4.57;2.38;;;5.70;99.90;;;;;;10474654;28;20036;-51
2020/12/26 15:33:52;;;;;;;3.88;1.90;;;5.80;99.90;;;;;;10445047;28;20411;-51
2020/12/26 15:39:13;;;;;;;4.63;2.03;;;5.80;99.90;;;;;;10471917;28;20459;-51
2020/12/26 15:44:34;;;;;;;5.75;2.28;;;5.80;99.90;;;;;;10482806;28;20119;-51
2020/12/26 15:49:54;;;;;;;6.68;2.95;;;5.90;99.90;;;;;;10449581;28;20036;-52
2020/12/26 15:55:15;;;;;;;5.03;2.40;;;6.00;99.90;;;;;;10482864;28;20036;-51
2020/12/26 16:00:36;;;;;;;12.60;2.92;;;6.00;99.90;;;;;;10446193;28;20055;-51
2020/12/26 16:05:57;;;;;;;4.35;2.00;;;6.00;99.90;;;;;;10483785;28;20193;-51
2020/12/26 16:11:18;;;;;;;5.90;2.40;;;6.10;99.90;;;;;;10455691;28;20357;-51
2020/12/26 16:16:44;;;;;;;8.82;2.47;;;6.10;99.90;;;;;;10480994;28;20107;-51
2020/12/26 16:22:05;;;;;;;6.15;2.63;;;6.10;99.90;;;;;;10460108;28;20036;-51
2020/12/26 16:27:26;;;;;;;5.05;2.22;;;6.20;99.90;;;;;;10459050;28;20037;-52
2020/12/26 16:32:47;;;;;;;6.05;2.58;;;6.20;99.90;;;;;;10476622;28;20075;-51
2020/12/26 16:38:08;;;;;;;7.53;3.00;;;6.20;99.90;;;;;;10449450;28;20036;-51
2020/12/26 16:43:29;;;;;;;7.38;2.72;;;6.30;99.90;;;;;;10480631;28;20079;-51
2020/12/26 16:48:51;;;;;;;6.25;3.20;;;6.20;99.90;;;;;;10453663;28;20768;-51
2020/12/26 16:54:12;;;;;;;7.88;4.47;;;6.30;99.90;;;;;;10480618;28;20032;-51
2020/12/26 16:59:33;;;;;;;7.50;3.13;;;6.20;99.90;;;;;;10457103;28;20043;-51
2020/12/26 17:04:53;;;;;;;6.18;3.22;;;6.30;99.90;;;;;;10452662;28;20029;-51
2020/12/26 17:10:15;;;;;;;8.73;3.10;;;6.30;99.90;;;;;;10479056;28;20073;-50
2020/12/26 17:15:36;;;;;;;4.40;1.98;;;6.40;99.90;;;;;;10443147;28;20051;-51
2020/12/26 17:20:56;;;;;;;4.90;2.08;;;6.40;99.90;;;;;;10465350;28;20040;-51
2020/12/26 17:26:22;;;;;;;5.22;2.58;;;6.30;99.90;;;;;;10478889;28;20100;-51
2020/12/26 17:31:43;;;;;;;6.07;2.85;;;6.30;99.90;;;;;;10478427;28;20036;-51
2020/12/26 17:37:04;;;;;;;5.90;2.08;;;6.40;99.90;;;;;;10480747;28;20025;-51
2020/12/26 17:42:25;;;;;;;5.97;2.40;;;6.40;99.90;;;;;;10474191;28;20103;-51
2020/12/26 17:47:46;;;;;;;4.93;2.00;;;6.40;99.90;;;;;;10448285;28;20045;-51
2020/12/26 17:53:07;;;;;;;5.90;2.10;;;6.50;99.90;;;;;;10445769;28;20443;-52
2020/12/26 17:58:28;;;;;;;5.72;2.22;;;6.40;99.90;;;;;;10479620;28;20031;-51
2020/12/26 18:03:49;;;;;;;5.60;2.25;;;6.50;99.90;;;;;;10476798;28;20548;-51
2020/12/26 18:09:10;;;;;;;7.65;3.38;;;6.50;99.90;;;;;;10464956;28;20041;-51
2020/12/26 18:14:31;;;;;;;8.15;2.85;;;6.30;99.90;;;;;;10478292;28;20044;-52
2020/12/26 18:19:52;;;;;;;8.68;2.95;;;6.20;99.90;;;;;;10465370;28;20093;-52
2020/12/26 18:25:13;;;;;;;4.18;2.05;;;6.30;99.90;;;;;;10464085;28;20028;-51
2020/12/26 18:30:34;;;;;;;5.65;2.75;;;6.30;99.90;;;;;;10473638;28;20431;-51
2020/12/26 18:35:55;;;;;;;7.80;2.90;;;6.30;99.90;;;;;;10477618;28;20059;-51
2020/12/26 18:41:21;;;;;;;3.15;1.65;;;6.30;99.90;;;;;;10478311;28;20061;-52
2020/12/26 18:46:46;;;;;;;14.38;3.17;;;6.30;99.90;;;;;;10460684;28;20061;-51
2020/12/26 18:52:09;;;;;;;4.20;2.05;;;6.30;99.90;;;;;;10482523;28;20531;-51
2020/12/26 18:57:31;;;;;;;6.40;1.95;;;6.20;99.90;;;;;;10464923;28;20551;-51
2020/12/26 19:02:52;;;;;;;8.80;3.13;;;6.10;99.90;;;;;;10485513;28;20051;-51
2020/12/26 19:08:13;;;;;;;6.93;2.55;;;6.10;99.90;;;;;;10478663;28;20798;-51
2020/12/26 19:13:34;;;;;;;7.00;2.92;;;6.10;99.90;;;;;;10472520;28;20047;-51
2020/12/26 19:18:54;;;;;;;4.50;1.98;;;6.10;99.90;;;;;;10466813;28;20035;-51
2020/12/26 19:24:15;;;;;;;6.57;3.15;;;6.10;99.90;;;;;;10460066;28;20086;-51
2020/12/26 19:29:36;;;;;;;8.40;3.10;;;6.10;99.90;;;;;;10483031;28;20037;-51
2020/12/26 19:34:57;;;;;;;4.18;1.73;;;6.10;99.90;;;;;;10483953;28;20077;-52
2020/12/26 19:40:18;;;;;;;6.40;2.90;;;6.10;99.90;;;;;;10483078;28;20047;-51
2020/12/26 19:45:39;;;;;;;12.80;3.33;;;6.00;99.90;;;;;;10483018;28;20024;-52
2020/12/26 19:51:00;;;;;;;8.65;3.90;;;6.00;99.90;;;;;;10462517;28;20672;-52
2020/12/26 19:56:21;;;;;;;8.48;2.72;;;5.90;99.90;;;;;;10478162;28;20484;-52
2020/12/26 20:01:42;;;;;;;8.48;3.85;;;5.90;99.90;;;;;;10480992;28;20044;-52
2020/12/26 20:07:03;;;;;;;8.07;2.70;;;5.90;99.90;;;;;;10483398;28;20032;-51
2020/12/26 20:12:31;;;;;;;9.75;3.40;;;5.80;99.90;;;;;;10483448;28;20037;-52
2020/12/26 20:17:52;;;;;;;6.55;2.95;;;5.70;99.90;;;;;;10479672;28;20071;-52
2020/12/26 20:23:13;;;;;;;7.82;3.38;;;5.80;99.90;;;;;;10459610;28;20048;-52
2020/12/26 20:28:33;;;;;;;6.72;3.10;;;5.70;99.90;;;;;;10448902;28;20044;-52
2020/12/26 20:33:54;;;;;;;9.00;2.80;;;5.80;99.90;;;;;;10482810;28;20458;-52
2020/12/26 20:39:15;;;;;;;6.95;3.05;;;5.80;99.90;;;;;;10482180;28;20032;-52
2020/12/26 20:44:36;;;;;;;7.38;3.05;;;5.80;99.90;;;;;;10461198;28;20056;-52
2020/12/26 20:49:57;;;;;;;6.22;3.10;;;5.90;99.90;;;;;;10481108;28;20055;-51
2020/12/26 20:55:19;;;;;;;7.93;3.38;;;5.90;99.90;;;;;;10480568;28;20055;-51
2020/12/26 21:00:39;;;;;;;7.22;3.88;;;6.00;99.90;;;;;;10478412;28;20512;-51
2020/12/26 21:06:01;;;;;;;10.77;2.53;;;5.90;99.90;;;;;;10482008;28;20052;-52
2020/12/26 21:11:22;;;;;;;11.10;4.80;;;5.90;99.90;;;;;;10452974;28;20055;-52
2020/12/26 21:16:46;;;;;;;6.03;2.63;;;5.90;99.90;;;;;;10469367;28;20044;-51
2020/12/26 21:22:07;;;;;;;16.55;2.80;;;5.90;99.90;;;;;;10480774;28;20052;-52
2020/12/26 21:27:31;;;;;;;5.88;2.85;;;5.90;99.90;;;;;;10478472;28;20044;-51
2020/12/26 21:32:52;;;;;;;6.38;3.50;;;5.90;99.90;;;;;;10472890;28;20043;-51
2020/12/26 21:38:13;;;;;;;8.75;2.70;;;6.00;99.90;;;;;;10473412;28;20033;-51
2020/12/26 21:43:35;;;;;;;4.63;2.05;;;6.00;99.90;;;;;;10468454;28;20048;-52
2020/12/26 21:48:56;;;;;;;7.32;3.10;;;6.00;99.90;;;;;;10459798;28;20029;-52
2020/12/26 21:54:17;;;;;;;5.90;2.67;;;6.00;99.90;;;;;;10453478;28;20040;-52
2020/12/26 21:59:38;;;;;;;7.60;1.92;;;6.10;99.90;;;;;;10454900;28;20037;-51
2020/12/26 22:04:59;;;;;;;5.88;2.10;;;6.20;99.90;;;;;;10478353;28;20036;-51
2020/12/26 22:10:20;;;;;;;11.93;2.83;;;6.20;99.90;;;;;;10460258;28;20052;-51
2020/12/26 22:15:48;;;;;;;5.65;2.45;;;6.20;99.90;;;;;;10453809;28;20084;-51
2020/12/26 22:21:09;;;;;;;6.70;2.07;;;6.20;99.90;;;;;;10479714;28;20139;-51
2020/12/26 22:26:30;;;;;;;6.90;2.53;;;6.30;99.90;;;;;;10486566;28;20037;-51
2020/12/26 22:31:51;;;;;;;5.35;2.92;;;6.20;99.90;;;;;;10472091;28;20036;-51
2020/12/26 22:37:12;;;;;;;5.25;1.98;;;6.20;99.90;;;;;;10473444;28;20463;-51
2020/12/26 22:42:34;;;;;;;4.55;1.83;;;6.20;99.90;;;;;;10470291;28;20047;-52
2020/12/26 22:47:55;;;;;;;7.50;2.40;;;6.20;99.90;;;;;;10465825;28;20044;-51
2020/12/26 22:53:16;;;;;;;6.10;2.45;;;6.20;99.90;;;;;;10471716;28;20029;-51
2020/12/26 22:58:37;;;;;;;3.90;2.20;;;6.20;99.90;;;;;;10456081;28;20024;-51
2020/12/26 23:03:58;;;;;;;4.72;1.85;;;6.30;99.90;;;;;;10478460;28;20043;-51
2020/12/26 23:09:19;;;;;;;5.20;1.98;;;6.20;99.90;;;;;;10474903;28;20523;-51
2020/12/26 23:14:40;;;;;;;6.38;2.13;;;6.20;99.90;;;;;;10451354;28;20040;-51
2020/12/26 23:20:12;;;;;;;3.83;1.83;;;6.20;99.90;;;;;;10458279;28;20057;-52
2020/12/26 23:25:33;;;;;;;5.05;2.45;;;6.30;99.90;;;;;;10483736;28;20071;-51
2020/12/26 23:30:54;;;;;;;6.28;2.50;;;6.30;99.90;;;;;;10482681;28;20029;-52
2020/12/26 23:36:15;;;;;;;5.43;2.30;;;6.20;99.90;;;;;;10468559;28;20020;-51
2020/12/26 23:41:36;;;;;;;5.05;2.47;;;6.30;99.90;;;;;;10462707;28;20049;-51
2020/12/26 23:46:57;;;;;;;4.72;2.22;;;6.20;99.90;;;;;;10456887;28;20550;-51
2020/12/26 23:52:18;;;;;;;5.47;1.70;;;6.20;99.90;;;;;;10477296;28;20503;-51
2020/12/26 23:57:39;;;;;;;5.32;2.05;;;6.20;99.90;;;;;;10482144;28;20036;-50
